createdAt,value
2023-05-06T00:00:32.041Z,13.50
2023-05-06T00:03:00.476Z,13.50
2023-05-06T00:05:27.760Z,13.40
2023-05-06T00:07:54.871Z,13.40
2023-05-06T00:10:22.173Z,13.40
2023-05-06T00:12:49.375Z,13.40
2023-05-06T00:15:16.816Z,13.40
2023-05-06T00:17:44.094Z,13.40
2023-05-06T00:20:15.088Z,13.20
2023-05-06T00:22:42.356Z,13.20
2023-05-06T00:25:10.170Z,13.10
2023-05-06T00:27:37.455Z,13.10
2023-05-06T00:30:06.481Z,13.20
2023-05-06T00:32:33.604Z,13.20
2023-05-06T00:35:00.902Z,13.20
2023-05-06T00:37:28.010Z,13.00
2023-05-06T00:39:55.702Z,12.90
2023-05-06T00:42:23.398Z,12.90
2023-05-06T00:44:51.380Z,12.90
2023-05-06T00:47:19.269Z,13.00
2023-05-06T00:49:51.341Z,13.00
2023-05-06T00:52:20.628Z,13.00
2023-05-06T00:54:47.850Z,12.90
2023-05-06T00:57:15.367Z,12.80
2023-05-06T00:59:44.530Z,12.80
2023-05-06T01:02:11.917Z,12.80
2023-05-06T01:04:41.561Z,12.80
2023-05-06T01:07:28.800Z,12.80
2023-05-06T01:10:08.085Z,12.80
2023-05-06T01:12:49.873Z,12.80
2023-05-06T01:15:37.267Z,12.80
2023-05-06T01:18:10.206Z,12.80
2023-05-06T01:20:38.965Z,12.80
2023-05-06T01:23:13.164Z,12.70
2023-05-06T01:25:41.158Z,12.60
2023-05-06T01:28:12.644Z,12.50
2023-05-06T01:30:48.606Z,12.50
2023-05-06T01:33:37.049Z,12.60
2023-05-06T01:36:54.430Z,12.60
2023-05-06T01:39:26.228Z,12.60
2023-05-06T01:41:57.499Z,12.70
2023-05-06T01:44:27.781Z,12.60
2023-05-06T01:46:56.379Z,12.70
2023-05-06T01:49:25.339Z,12.70
2023-05-06T01:51:53.670Z,12.70
2023-05-06T01:54:20.910Z,12.60
2023-05-06T01:56:48.189Z,12.60
2023-05-06T01:59:15.645Z,12.60
2023-05-06T02:01:43.002Z,12.60
2023-05-06T02:04:10.098Z,12.60
2023-05-06T02:06:37.545Z,12.70
2023-05-06T02:09:05.836Z,12.70
2023-05-06T02:11:36.618Z,12.70
2023-05-06T02:14:06.890Z,12.70
2023-05-06T02:16:35.311Z,12.70
2023-05-06T02:19:02.998Z,12.80
2023-05-06T02:21:30.376Z,12.70
2023-05-06T02:23:57.954Z,12.70
2023-05-06T02:26:25.770Z,12.70
2023-05-06T02:28:56.637Z,12.70
2023-05-06T02:31:23.869Z,12.80
2023-05-06T02:33:54.246Z,12.70
2023-05-06T02:36:21.294Z,12.70
2023-05-06T02:38:48.526Z,12.70
2023-05-06T02:41:15.654Z,12.70
2023-05-06T02:43:42.875Z,12.70
2023-05-06T02:46:10.021Z,12.70
2023-05-06T02:48:37.164Z,12.70
2023-05-06T02:51:05.474Z,12.80
2023-05-06T02:53:32.873Z,12.70
2023-05-06T02:56:00.141Z,12.70
2023-05-06T02:58:27.293Z,12.80
2023-05-06T03:00:54.519Z,12.70
2023-05-06T03:03:22.850Z,12.70
2023-05-06T03:05:50.128Z,12.70
2023-05-06T03:08:42.998Z,12.70
2023-05-06T03:11:10.349Z,12.70
2023-05-06T03:13:37.698Z,12.70
2023-05-06T03:16:20.419Z,12.70
2023-05-06T03:18:52.252Z,12.70
2023-05-06T03:21:20.111Z,12.70
2023-05-06T03:23:49.567Z,12.70
2023-05-06T03:26:21.715Z,12.60
2023-05-06T03:28:48.911Z,12.60
2023-05-06T03:31:19.216Z,12.60
2023-05-06T03:33:47.146Z,12.60
2023-05-06T03:36:14.786Z,12.60
2023-05-06T03:41:51.015Z,12.60
2023-05-06T03:44:18.676Z,12.50
2023-05-06T03:46:46.336Z,12.50
2023-05-06T03:49:39.952Z,12.40
2023-05-06T03:52:08.117Z,12.40
2023-05-06T03:55:03.234Z,12.40
2023-05-06T03:57:56.538Z,12.40
2023-05-06T04:00:23.726Z,12.40
2023-05-06T04:03:06.299Z,12.40
2023-05-06T04:05:41.712Z,12.30
2023-05-06T04:08:29.438Z,12.30
2023-05-06T04:10:56.712Z,12.40
2023-05-06T04:13:33.031Z,12.40
2023-05-06T04:16:04.148Z,12.30
2023-05-06T04:18:39.858Z,12.30
2023-05-06T04:21:12.279Z,12.40
2023-05-06T04:23:42.816Z,12.30
2023-05-06T04:26:12.422Z,12.30
2023-05-06T04:28:46.614Z,12.30
2023-05-06T04:31:16.585Z,12.30
2023-05-06T04:33:50.195Z,12.20
2023-05-06T04:36:22.058Z,12.20
2023-05-06T04:39:10.477Z,12.30
2023-05-06T04:41:38.525Z,12.30
2023-05-06T04:44:06.628Z,12.30
2023-05-06T04:46:34.166Z,12.30
2023-05-06T04:49:02.632Z,12.30
2023-05-06T04:51:30.165Z,12.40
2023-05-06T04:53:57.300Z,12.40
2023-05-06T04:56:24.666Z,12.50
2023-05-06T04:58:52.038Z,12.50
2023-05-06T05:01:26.399Z,12.50
2023-05-06T05:04:19.171Z,12.60
2023-05-06T05:06:47.846Z,12.60
2023-05-06T05:09:15.951Z,12.60
2023-05-06T05:12:06.468Z,12.70
2023-05-06T05:18:14.877Z,12.80
2023-05-06T05:20:42.612Z,12.80
2023-05-06T05:23:12.538Z,12.90
2023-05-06T05:25:39.744Z,12.90
2023-05-06T05:28:32.488Z,12.90
2023-05-06T05:31:19.696Z,13.00
2023-05-06T05:33:46.887Z,13.00
2023-05-06T05:36:17.010Z,13.10
2023-05-06T05:42:20.923Z,13.00
2023-05-06T05:44:48.613Z,13.20
2023-05-06T05:47:19.704Z,13.20
2023-05-06T05:49:46.982Z,13.20
2023-05-06T05:52:14.487Z,13.30
2023-05-06T05:54:58.564Z,13.30
2023-05-06T05:57:26.305Z,13.40
2023-05-06T05:59:53.658Z,13.40
2023-05-06T06:02:21.316Z,13.50
2023-05-06T06:04:48.668Z,13.60
2023-05-06T06:07:52.379Z,13.60
2023-05-06T06:10:20.145Z,13.70
2023-05-06T06:12:47.590Z,13.70
2023-05-06T06:15:19.029Z,13.80
2023-05-06T06:21:16.130Z,13.90
2023-05-06T06:23:43.364Z,14.00
2023-05-06T06:26:12.330Z,14.00
2023-05-06T06:28:40.136Z,14.10
2023-05-06T06:31:07.404Z,14.10
2023-05-06T06:33:34.493Z,14.20
2023-05-06T06:36:02.140Z,14.20
2023-05-06T06:38:29.280Z,14.30
2023-05-06T06:40:56.504Z,14.30
2023-05-06T06:44:31.113Z,14.40
2023-05-06T06:47:01.124Z,14.50
2023-05-06T06:49:28.321Z,14.60
2023-05-06T06:51:57.508Z,14.70
2023-05-06T06:54:33.825Z,14.70
2023-05-06T06:57:01.572Z,14.80
2023-05-06T06:59:28.961Z,14.90
2023-05-06T07:01:56.187Z,15.00
2023-05-06T07:04:25.084Z,15.10
2023-05-06T07:06:52.386Z,15.20
2023-05-06T07:09:20.625Z,15.20
2023-05-06T07:11:47.868Z,15.30
2023-05-06T07:14:15.114Z,15.30
2023-05-06T07:16:44.560Z,15.40
2023-05-06T07:19:13.336Z,15.50
2023-05-06T07:21:40.517Z,15.60
2023-05-06T07:24:08.232Z,15.70
2023-05-06T07:26:38.699Z,15.80
2023-05-06T07:29:06.435Z,15.90
2023-05-06T07:31:34.032Z,16.00
2023-05-06T07:34:01.535Z,16.00
2023-05-06T07:36:29.079Z,16.10
2023-05-06T07:38:56.327Z,16.20
2023-05-06T07:41:23.588Z,16.30
2023-05-06T07:43:50.669Z,16.30
2023-05-06T07:46:18.675Z,16.40
2023-05-06T07:48:48.451Z,16.60
2023-05-06T07:51:16.109Z,16.80
2023-05-06T07:53:43.382Z,16.90
2023-05-06T07:56:10.542Z,17.00
2023-05-06T07:58:41.794Z,17.00
2023-05-06T08:01:21.249Z,17.10
2023-05-06T08:03:48.615Z,17.30
2023-05-06T08:06:18.735Z,17.30
2023-05-06T08:08:48.080Z,17.40
2023-05-06T08:11:16.987Z,17.40
2023-05-06T08:13:46.228Z,17.40
2023-05-06T08:16:13.509Z,17.60
2023-05-06T08:18:40.855Z,17.70
2023-05-06T08:21:08.001Z,17.90
2023-05-06T08:23:35.268Z,17.90
2023-05-06T08:26:02.368Z,18.00
2023-05-06T08:28:29.628Z,18.00
2023-05-06T08:30:56.782Z,18.20
2023-05-06T08:33:23.868Z,18.40
2023-05-06T08:35:53.232Z,18.60
2023-05-06T08:38:20.314Z,18.70
2023-05-06T08:40:49.321Z,18.80
2023-05-06T08:43:21.225Z,18.80
2023-05-06T08:45:50.535Z,18.90
2023-05-06T08:48:18.232Z,19.10
2023-05-06T08:50:45.524Z,19.10
2023-05-06T08:53:22.263Z,19.10
2023-05-06T08:55:51.778Z,19.20
2023-05-06T08:58:19.681Z,19.30
2023-05-06T09:00:47.551Z,19.40
2023-05-06T09:03:27.179Z,19.50
2023-05-06T09:05:54.855Z,19.70
2023-05-06T09:08:21.965Z,19.90
2023-05-06T09:10:49.319Z,20.00
2023-05-06T09:13:18.874Z,20.00
2023-05-06T09:15:47.851Z,20.20
2023-05-06T09:18:16.111Z,20.20
2023-05-06T09:20:46.366Z,20.20
2023-05-06T09:23:16.225Z,20.20
2023-05-06T09:25:46.363Z,20.40
2023-05-06T09:28:33.544Z,20.40
2023-05-06T09:31:01.319Z,20.50
2023-05-06T09:33:28.520Z,20.70
2023-05-06T09:35:56.145Z,20.80
2023-05-06T09:38:23.350Z,21.00
2023-05-06T09:40:51.771Z,21.10
2023-05-06T09:43:19.651Z,21.30
2023-05-06T09:45:47.288Z,21.40
2023-05-06T09:48:15.991Z,21.60
2023-05-06T09:50:44.478Z,21.60
2023-05-06T09:53:13.358Z,21.70
2023-05-06T09:55:42.184Z,21.80
2023-05-06T09:58:10.562Z,21.70
2023-05-06T10:00:37.879Z,21.80
2023-05-06T10:03:06.074Z,21.80
2023-05-06T10:05:36.805Z,21.90
2023-05-06T10:08:09.379Z,21.90
2023-05-06T10:10:37.975Z,21.80
2023-05-06T10:13:05.092Z,21.80
2023-05-06T10:15:32.859Z,21.80
2023-05-06T10:22:20.782Z,22.10
2023-05-06T10:25:19.478Z,22.20
2023-05-06T10:27:47.581Z,22.40
2023-05-06T10:30:19.336Z,22.50
2023-05-06T10:32:46.889Z,22.40
2023-05-06T10:35:46.381Z,22.60
2023-05-06T10:38:36.066Z,22.70
2023-05-06T10:41:04.182Z,22.70
2023-05-06T10:43:57.406Z,22.70
2023-05-06T10:46:28.286Z,22.90
2023-05-06T10:49:14.089Z,22.90
2023-05-06T10:52:35.456Z,22.90
2023-05-06T10:55:27.555Z,23.10
2023-05-06T10:57:56.970Z,23.20
2023-05-06T11:00:24.340Z,23.20
2023-05-06T11:02:57.044Z,23.10
2023-05-06T11:05:25.227Z,23.00
2023-05-06T11:08:12.940Z,23.10
2023-05-06T11:10:40.395Z,23.10
2023-05-06T11:13:28.403Z,22.90
2023-05-06T11:19:22.607Z,22.80
2023-05-06T11:21:50.824Z,22.80
2023-05-06T11:24:26.748Z,22.80
2023-05-06T11:27:03.964Z,22.90
2023-05-06T11:29:31.756Z,22.90
2023-05-06T11:31:59.256Z,22.90
2023-05-06T11:34:31.874Z,22.80
2023-05-06T11:37:06.878Z,22.90
2023-05-06T11:39:40.512Z,23.00
2023-05-06T11:42:09.258Z,22.90
2023-05-06T11:44:42.835Z,22.90
2023-05-06T11:47:15.198Z,22.90
2023-05-06T11:49:43.457Z,23.10
2023-05-06T11:52:12.720Z,23.10
2023-05-06T11:54:42.129Z,23.10
2023-05-06T11:57:10.131Z,23.10
2023-05-06T12:00:22.872Z,23.20
2023-05-06T12:02:54.525Z,23.20
2023-05-06T12:05:24.021Z,23.20
2023-05-06T12:07:57.488Z,23.20
2023-05-06T12:10:24.835Z,23.10
2023-05-06T12:12:52.352Z,23.00
2023-05-06T12:15:19.647Z,23.00
2023-05-06T12:17:56.487Z,23.00
2023-05-06T12:20:23.791Z,22.90
2023-05-06T12:23:16.693Z,23.00
2023-05-06T12:25:49.208Z,23.20
2023-05-06T12:28:22.415Z,23.30
2023-05-06T12:30:49.680Z,23.40
2023-05-06T12:33:17.044Z,23.40
2023-05-06T12:35:44.445Z,23.50
2023-05-06T12:38:14.161Z,23.40
2023-05-06T12:41:07.336Z,23.40
2023-05-06T12:43:34.661Z,23.30
2023-05-06T12:46:09.478Z,23.20
2023-05-06T12:48:36.803Z,23.10
2023-05-06T12:51:21.008Z,23.20
2023-05-06T12:53:48.123Z,23.30
2023-05-06T12:56:15.397Z,23.40
2023-05-06T12:58:42.821Z,23.40
2023-05-06T13:01:10.139Z,23.50
2023-05-06T13:03:53.903Z,23.60
2023-05-06T13:06:21.364Z,23.70
2023-05-06T13:08:48.470Z,23.80
2023-05-06T13:11:15.668Z,23.50
2023-05-06T13:13:43.712Z,23.50
2023-05-06T13:16:20.173Z,23.60
2023-05-06T13:18:47.681Z,23.60
2023-05-06T13:21:33.730Z,23.50
2023-05-06T13:24:01.182Z,23.60
2023-05-06T13:26:36.663Z,23.60
2023-05-06T13:29:06.984Z,23.70
2023-05-06T13:31:34.989Z,23.70
2023-05-06T13:34:02.159Z,23.60
2023-05-06T13:36:32.120Z,23.50
2023-05-06T13:39:02.664Z,23.50
2023-05-06T13:41:55.458Z,23.40
2023-05-06T13:44:22.859Z,23.50
2023-05-06T13:46:53.460Z,23.70
2023-05-06T13:49:20.845Z,23.70
2023-05-06T13:52:16.792Z,23.70
2023-05-06T13:54:45.113Z,23.60
2023-05-06T13:57:12.334Z,23.70
2023-05-06T13:59:39.810Z,23.70
2023-05-06T14:02:09.366Z,23.60
2023-05-06T14:04:37.357Z,23.60
2023-05-06T14:07:04.656Z,23.60
2023-05-06T14:09:31.880Z,23.50
2023-05-06T14:12:01.952Z,23.50
2023-05-06T14:14:29.360Z,23.50
2023-05-06T14:16:56.588Z,23.50
2023-05-06T14:19:23.718Z,23.50
2023-05-06T14:21:51.905Z,23.50
2023-05-06T14:24:18.986Z,23.70
2023-05-06T14:26:46.266Z,23.70
2023-05-06T14:29:13.453Z,23.70
2023-05-06T14:31:40.860Z,23.70
2023-05-06T14:34:08.175Z,23.60
2023-05-06T14:36:35.323Z,23.60
2023-05-06T14:39:02.729Z,23.70
2023-05-06T14:41:29.838Z,23.60
2023-05-06T14:43:57.047Z,23.60
2023-05-06T14:46:25.342Z,23.60
2023-05-06T14:48:53.673Z,23.60
2023-05-06T14:51:20.942Z,23.50
2023-05-06T14:53:49.670Z,23.50
2023-05-06T14:56:22.178Z,23.40
2023-05-06T14:58:49.502Z,23.30
2023-05-06T15:01:16.574Z,23.40
2023-05-06T15:03:45.322Z,23.30
2023-05-06T15:06:13.461Z,23.30
2023-05-06T15:08:41.016Z,23.20
2023-05-06T15:11:08.344Z,23.30
2023-05-06T15:13:35.501Z,23.30
2023-05-06T15:16:02.743Z,23.30
2023-05-06T15:18:30.111Z,23.30
2023-05-06T15:21:01.114Z,23.20
2023-05-06T15:23:28.581Z,23.10
2023-05-06T15:25:57.931Z,23.00
2023-05-06T15:28:25.730Z,23.00
2023-05-06T15:30:53.053Z,23.00
2023-05-06T15:33:20.443Z,23.10
2023-05-06T15:35:47.829Z,22.60
2023-05-06T15:38:14.909Z,22.30
2023-05-06T15:40:49.152Z,22.10
2023-05-06T15:43:22.895Z,22.10
2023-05-06T15:45:51.152Z,21.80
2023-05-06T15:48:24.484Z,21.60
2023-05-06T15:50:51.778Z,21.60
2023-05-06T15:53:19.561Z,21.60
2023-05-06T15:55:54.597Z,21.50
2023-05-06T15:58:23.971Z,21.30
2023-05-06T16:00:51.168Z,21.20
2023-05-06T16:03:18.646Z,21.20
2023-05-06T16:05:47.041Z,21.30
2023-05-06T16:08:14.316Z,21.20
2023-05-06T16:10:41.604Z,21.30
2023-05-06T16:13:08.849Z,21.10
2023-05-06T16:15:36.659Z,21.10
2023-05-06T16:18:04.024Z,20.90
2023-05-06T16:20:32.770Z,20.80
2023-05-06T16:23:23.223Z,20.80
2023-05-06T16:25:50.498Z,20.70
2023-05-06T16:28:17.877Z,20.80
2023-05-06T16:30:46.424Z,20.70
2023-05-06T16:33:14.685Z,20.60
2023-05-06T16:35:41.790Z,20.50
2023-05-06T16:38:09.430Z,20.40
2023-05-06T16:40:47.599Z,20.30
2023-05-06T16:43:14.850Z,19.90
2023-05-06T16:45:45.751Z,19.40
2023-05-06T16:48:14.096Z,19.20
2023-05-06T16:50:41.940Z,19.10
2023-05-06T16:53:09.357Z,18.90
2023-05-06T16:55:36.766Z,18.70
2023-05-06T16:58:04.513Z,18.70
2023-05-06T17:00:32.295Z,18.40
2023-05-06T17:03:00.022Z,18.30
2023-05-06T17:05:28.210Z,18.10
2023-05-06T17:07:55.969Z,18.00
2023-05-06T17:10:24.771Z,17.90
2023-05-06T17:12:52.016Z,17.90
2023-05-06T17:15:19.479Z,17.90
2023-05-06T17:17:56.069Z,17.70
2023-05-06T17:20:24.290Z,17.70
2023-05-06T17:22:51.683Z,17.60
2023-05-06T17:25:19.157Z,17.60
2023-05-06T17:27:46.839Z,17.50
2023-05-06T17:30:15.569Z,17.40
2023-05-06T17:32:43.981Z,17.30
2023-05-06T17:35:12.530Z,17.30
2023-05-06T17:37:40.671Z,17.30
2023-05-06T17:40:09.087Z,17.20
2023-05-06T17:42:37.052Z,17.00
2023-05-06T17:45:05.511Z,17.00
2023-05-06T17:47:33.646Z,17.00
2023-05-06T17:50:01.723Z,17.10
2023-05-06T17:52:33.002Z,17.10
2023-05-06T17:57:38.757Z,17.20
2023-05-06T18:00:07.998Z,17.30
2023-05-06T18:02:39.669Z,17.30
2023-05-06T18:05:07.942Z,17.30
2023-05-06T18:07:36.767Z,17.40
2023-05-06T18:10:04.610Z,17.40
2023-05-06T18:12:32.524Z,17.40
2023-05-06T18:15:01.236Z,17.40
2023-05-06T18:17:28.954Z,17.40
2023-05-06T18:19:56.553Z,17.40
2023-05-06T18:22:24.191Z,17.40
2023-05-06T18:24:55.637Z,17.40
2023-05-06T18:27:23.479Z,17.40
2023-05-06T18:29:51.492Z,17.40
2023-05-06T18:32:19.318Z,17.40
2023-05-06T18:34:47.016Z,17.40
2023-05-06T18:37:14.518Z,17.40
2023-05-06T18:39:43.258Z,17.40
2023-05-06T18:42:10.948Z,17.40
2023-05-06T18:44:38.702Z,17.30
2023-05-06T18:47:06.479Z,17.40
2023-05-06T18:49:34.173Z,17.30
2023-05-06T18:52:02.967Z,17.30
2023-05-06T18:54:30.533Z,17.30
2023-05-06T18:56:59.161Z,17.30
2023-05-06T18:59:26.980Z,17.30
2023-05-06T19:01:54.591Z,17.20
2023-05-06T19:04:22.103Z,17.20
2023-05-06T19:06:49.630Z,17.20
2023-05-06T19:09:17.244Z,17.10
2023-05-06T19:11:44.991Z,17.10
2023-05-06T19:14:12.541Z,17.00
2023-05-06T19:16:40.196Z,16.90
2023-05-06T19:19:07.914Z,16.90
2023-05-06T19:21:38.947Z,17.00
2023-05-06T19:24:07.031Z,16.90
2023-05-06T19:26:34.654Z,16.90
2023-05-06T19:29:02.239Z,16.90
2023-05-06T19:31:29.911Z,16.90
2023-05-06T19:33:57.851Z,16.90
2023-05-06T19:36:25.506Z,16.80
2023-05-06T19:38:53.208Z,16.70
2023-05-06T19:41:21.693Z,16.70
2023-05-06T19:43:49.355Z,16.70
2023-05-06T19:46:17.019Z,16.80
2023-05-06T19:48:45.865Z,16.80
2023-05-06T19:51:13.440Z,16.80
2023-05-06T19:53:41.082Z,16.80
2023-05-06T19:56:10.076Z,16.80
2023-05-06T19:58:37.923Z,16.80
2023-05-06T20:01:05.714Z,16.80
2023-05-06T20:03:33.630Z,16.80
2023-05-06T20:06:01.624Z,16.70
2023-05-06T20:08:29.267Z,16.80
2023-05-06T20:10:56.976Z,16.80
2023-05-06T20:13:24.699Z,16.70
2023-05-06T20:15:52.264Z,16.60
2023-05-06T20:18:19.855Z,16.50
2023-05-06T20:20:47.860Z,16.50
2023-05-06T20:23:15.646Z,16.50
2023-05-06T20:25:43.231Z,16.50
2023-05-06T20:28:10.891Z,16.50
2023-05-06T20:30:39.045Z,16.50
2023-05-06T20:33:06.731Z,16.50
2023-05-06T20:35:38.651Z,16.50
2023-05-06T20:38:06.640Z,16.50
2023-05-06T20:40:36.007Z,16.50
2023-05-06T20:43:03.197Z,16.40
2023-05-06T20:45:31.383Z,16.40
2023-05-06T20:47:58.929Z,16.20
2023-05-06T20:50:26.173Z,16.10
2023-05-06T20:52:54.557Z,16.10
2023-05-06T20:55:23.374Z,16.20
2023-05-06T20:57:51.065Z,16.20
2023-05-06T21:00:19.284Z,16.20
2023-05-06T21:02:46.317Z,16.10
2023-05-06T21:05:13.713Z,16.00
2023-05-06T21:07:41.194Z,16.00
2023-05-06T21:10:09.199Z,16.00
2023-05-06T21:12:36.150Z,16.00
2023-05-06T21:15:03.386Z,15.90
2023-05-06T21:17:30.410Z,15.90
2023-05-06T21:19:57.428Z,15.90
2023-05-06T21:22:24.563Z,15.90
2023-05-06T21:24:52.094Z,15.80
2023-05-06T21:27:19.011Z,15.80
2023-05-06T21:29:45.928Z,15.70
2023-05-06T21:32:13.096Z,15.60
2023-05-06T21:34:39.986Z,15.60
2023-05-06T21:37:06.966Z,15.70
2023-05-06T21:39:33.964Z,15.70
2023-05-06T21:42:00.894Z,15.70
2023-05-06T21:44:27.758Z,15.70
2023-05-06T21:46:54.767Z,15.60
2023-05-06T21:49:22.326Z,15.60
2023-05-06T21:51:49.536Z,15.60
2023-05-06T21:54:17.382Z,15.60
2023-05-06T21:56:45.626Z,15.60
2023-05-06T21:59:13.269Z,15.60
2023-05-06T22:01:40.247Z,15.60
2023-05-06T22:04:11.548Z,15.60
2023-05-06T22:06:39.563Z,15.60
2023-05-06T22:09:09.555Z,15.60
2023-05-06T22:11:38.358Z,15.60
2023-05-06T22:14:06.699Z,15.50
2023-05-06T22:16:35.493Z,15.50
2023-05-06T22:19:03.917Z,15.40
2023-05-06T22:21:31.976Z,15.40
2023-05-06T22:23:59.238Z,15.40
2023-05-06T22:26:28.106Z,15.30
2023-05-06T22:28:56.285Z,15.40
2023-05-06T22:31:24.651Z,15.40
2023-05-06T22:33:55.590Z,15.40
2023-05-06T22:36:23.073Z,15.40
2023-05-06T22:38:50.129Z,15.30
2023-05-06T22:41:18.243Z,15.30
2023-05-06T22:43:45.200Z,15.30
2023-05-06T22:46:12.089Z,15.20
2023-05-06T22:48:39.024Z,15.20
2023-05-06T22:51:06.411Z,15.20
2023-05-06T22:53:33.291Z,15.20
2023-05-06T22:56:00.344Z,15.20
2023-05-06T22:58:27.205Z,15.30
2023-05-06T23:00:54.816Z,15.20
2023-05-06T23:03:22.679Z,15.20
2023-05-06T23:05:49.854Z,15.20
2023-05-06T23:08:17.017Z,15.20
2023-05-06T23:10:44.086Z,15.20
2023-05-06T23:13:12.108Z,15.10
2023-05-06T23:15:39.461Z,15.10
2023-05-06T23:18:06.902Z,15.10
2023-05-06T23:20:33.824Z,15.10
2023-05-06T23:23:00.760Z,15.10
2023-05-06T23:25:27.723Z,15.10
2023-05-06T23:27:54.680Z,15.20
2023-05-06T23:30:21.625Z,15.10
2023-05-06T23:32:48.527Z,15.10
2023-05-06T23:35:15.548Z,15.10
2023-05-06T23:37:42.365Z,15.10
2023-05-06T23:40:12.467Z,15.20
2023-05-06T23:42:39.422Z,15.20
2023-05-06T23:45:06.708Z,15.10
2023-05-06T23:47:33.615Z,15.10
2023-05-06T23:50:00.763Z,15.10
2023-05-06T23:52:27.645Z,15.10
2023-05-06T23:54:54.590Z,15.20
2023-05-06T23:57:21.483Z,15.20
2023-05-06T23:59:48.322Z,15.20
